Date,TemperatureHighF,TemperatureAvgF,TemperatureLowF,DewpointHighF,DewpointAvgF,DewpointLowF,HumidityHigh,HumidityAvg,HumidityLow,PressureMaxIn,PressureMinIn,WindSpeedMaxMPH,WindSpeedAvgMPH,GustSpeedMaxMPH,PrecipitationSumIn
2013-1-1,50.5,47.3,42.8,50.0,42.6,32.7,98,80,48,29.66,29.49,2,0,4,0.22
2013-1-2,50.0,45.6,41.5,49.6,43.6,38.8,99,91,76,29.75,29.47,2,0,4,0.31
2013-1-3,46.8,41.0,30.6,39.2,37.3,28.5,90,82,65,29.82,29.70,2,0,2,0.01
2013-1-4,54.0,38.6,25.9,35.0,27.4,23.2,92,60,23,29.88,29.74,3,0,4,0.00
2013-1-5,53.4,34.4,26.4,33.7,17.8,-99.9,76,56,33,29.95,29.83,2,0,3,0.00
2013-1-6,52.7,42.6,36.1,41.9,37.2,-99.9,93,77,56,29.81,29.61,2,0,4,0.01
2013-1-7,57.9,40.6,28.8,39.7,33.2,27.1,92,71,36,29.99,29.73,2,0,4,0.01
2013-1-8,61.3,43.9,30.4,45.3,37.7,27.4,88,74,44,30.02,29.92,2,0,3,0.00
2013-1-9,69.3,50.9,35.8,54.1,45.1,33.7,96,77,48,30.01,29.53,2,0,3,0.00
2013-1-10,68.9,55.1,46.8,51.8,47.5,41.1,95,72,42,30.09,29.97,2,0,3,0.00
2013-1-11,51.1,47.6,42.4,49.3,44.2,37.0,99,86,51,29.99,29.67,1,0,2,0.24
2013-1-12,75.4,58.1,49.3,66.7,56.1,49.1,99,92,67,29.73,29.61,2,0,3,0.01
2013-1-13,78.4,64.4,53.6,65.6,59.4,53.0,99,82,52,29.70,29.55,6,0,9,0.01
2013-1-14,70.9,57.3,58.5,64.9,41.7,-99.9,91,74,74,29.71,29.59,2,0,4,0.00
2013-1-15,65.3,48.3,45.7,61.7,46.8,44.7,97,93,82,29.79,29.56,3,0,5,0.01
2013-1-16,50.2,46.8,44.1,50.0,46.3,43.7,99,98,97,29.64,29.49,2,0,4,0.18
2013-1-17,51.1,47.0,33.3,50.9,46.6,32.0,99,98,92,29.72,28.64,4,0,9,0.86
2013-1-18,51.8,37.4,28.6,40.5,31.2,25.8,99,75,32,30.09,29.09,2,0,4,0.44
2013-1-19,58.5,38.9,25.5,36.9,29.7,22.4,90,65,26,30.06,29.22,4,0,8,0.01
2013-1-20,68.7,47.8,34.9,43.2,36.1,30.9,84,60,22,29.71,29.52,3,0,6,0.00
2013-1-21,63.7,45.2,29.3,42.9,32.0,24.8,94,56,23,29.64,29.38,4,0,6,0.00
2013-1-22,43.2,34.8,26.6,26.2,12.8,3.9,52,28,18,29.84,29.47,3,0,7,0.00
2013-1-23,43.0,30.7,18.7,19.7,12.7,3.7,62,35,19,29.94,29.56,3,0,6,0.00
2013-1-24,41.2,32.6,25.0,26.1,16.0,3.1,73,41,18,30.07,29.48,4,0,9,0.00
2013-1-25,27.1,24.9,21.2,24.0,14.5,5.1,84,56,27,30.09,29.62,2,0,4,0.02
2013-1-26,43.5,31.5,26.6,37.6,28.3,23.7,93,84,61,29.96,29.62,1,0,2,0.01
2013-1-27,45.7,33.9,23.7,34.0,27.7,21.6,94,73,46,30.15,29.95,2,0,5,0.01
2013-1-28,52.2,43.1,33.4,46.6,37.3,27.9,86,74,62,30.07,29.63,4,0,6,0.01
2013-1-29,77.4,59.0,45.3,61.5,53.0,43.9,95,77,48,29.80,29.58,3,0,6,0.01
2013-1-30,72.7,68.0,60.1,66.0,63.3,57.1,91,82,69,29.63,28.92,11,3,21,0.24
2013-1-31,63.7,48.2,33.6,61.1,33.8,23.2,91,50,21,29.57,28.98,6,2,12,0.34
2013-2-1,43.9,36.7,25.7,31.8,17.5,5.4,61,36,18,29.94,29.40,4,1,10,0.01
2013-2-2,47.3,34.6,19.0,37.3,16.5,7.9,76,37,19,29.96,29.54,4,0,8,0.00
2013-2-3,52.5,42.7,32.9,38.1,33.0,25.0,89,62,32,29.57,29.41,3,0,8,0.00
2013-2-4,50.9,38.8,27.0,30.4,26.4,21.0,79,53,29,29.70,29.50,4,0,5,0.00
2013-2-5,65.8,48.2,38.1,41.0,35.6,30.0,77,55,26,29.57,29.39,3,0,8,0.00
2013-2-6,68.7,48.0,31.8,62.8,32.8,27.7,97,54,13,29.83,29.48,3,0,6,0.00
2013-2-7,49.5,43.6,37.4,43.2,39.3,32.5,98,80,52,29.88,29.48,2,0,4,0.35
2013-2-8,59.2,46.6,39.7,49.5,42.5,31.6,99,83,54,29.61,28.68,2,0,7,0.70
2013-2-9,140.5,38.7,28.2,32.0,26.7,-99.9,88,58,19,34.87,20.03,238,1,238,0.01
2013-2-10,58.6,40.8,26.1,41.3,27.3,22.3,83,54,20,30.04,29.76,4,0,7,0.01
2013-2-11,63.9,57.7,45.3,60.8,55.2,41.3,97,89,81,29.76,29.48,4,1,10,0.05
2013-2-12,65.1,54.3,45.3,55.2,41.0,31.3,98,57,20,29.65,29.45,2,0,4,0.01
2013-2-13,49.6,46.4,42.8,47.6,44.8,38.6,99,92,63,29.51,28.95,2,0,4,0.09
2013-2-14,54.1,42.1,30.6,39.1,35.0,29.1,98,72,42,29.62,29.39,3,0,5,0.01
2013-2-15,67.3,45.1,29.3,45.0,34.7,28.0,97,65,24,29.65,29.10,3,0,4,0.00
2013-2-16,45.9,37.1,30.7,38.5,33.5,27.9,97,83,62,29.52,29.38,1,0,4,0.34
2013-2-17,41.0,31.1,24.3,27.5,16.2,9.3,84,45,19,29.84,29.47,5,1,11,0.04
2013-2-18,55.4,35.7,18.7,29.0,21.0,13.8,82,49,18,29.97,29.57,4,1,8,0.02
2013-2-19,52.5,43.7,34.3,50.8,39.7,27.8,97,81,56,29.81,29.42,4,0,9,0.11
2013-2-20,56.8,41.8,28.8,39.0,25.9,19.7,99,48,18,29.69,29.51,3,0,6,0.01
2013-2-21,60.1,42.2,25.7,27.8,23.6,19.0,73,40,18,29.81,29.66,2,0,4,0.00
2013-2-22,44.4,36.8,33.1,35.7,33.2,26.8,94,83,39,29.91,29.67,2,0,2,0.45
2013-2-23,43.5,36.0,36.3,43.1,26.0,-99.9,99,88,94,29.67,29.37,2,0,2,0.71
2013-2-24,67.3,50.4,39.2,50.6,41.3,30.1,99,70,19,29.59,29.34,4,0,6,0.11
2013-2-25,43.5,38.8,34.3,33.3,28.0,23.5,75,56,43,29.78,29.55,3,0,6,0.01
2013-2-26,58.6,43.4,36.3,58.4,36.0,-99.9,99,83,59,29.69,29.10,2,0,5,0.65
2013-2-27,63.3,49.9,40.5,45.4,42.6,38.3,98,73,35,29.34,28.87,4,1,7,0.01
2013-2-28,51.6,41.9,33.4,40.3,34.3,27.3,99,70,34,29.41,28.87,3,0,6,0.01
2013-3-1,54.1,40.2,28.2,35.4,30.9,24.6,87,63,33,29.47,29.38,2,0,5,0.00
2013-3-2,52.0,39.0,28.4,34.3,28.5,21.2,86,59,32,29.48,29.03,2,0,4,0.00
2013-3-3,50.7,36.7,26.8,27.6,22.5,18.6,63,46,25,29.53,29.35,4,0,6,0.00
2013-3-4,54.3,37.2,23.2,24.2,20.3,16.3,66,42,18,29.67,29.48,3,0,7,0.00
2013-3-5,50.2,43.0,34.9,45.6,36.9,23.9,97,74,43,29.63,29.07,2,0,7,0.24
2013-3-6,50.4,43.5,37.9,47.8,35.4,29.6,99,67,42,29.58,29.06,5,1,8,0.01
2013-3-7,56.1,43.3,32.2,36.1,31.5,26.1,77,55,34,29.79,29.53,4,0,7,0.01
2013-3-8,59.9,44.4,30.2,33.6,28.4,24.5,73,46,21,29.84,29.65,4,0,9,0.00
2013-3-9,68.2,47.8,29.5,36.5,31.4,25.2,80,48,18,29.89,29.74,2,0,4,0.00
2013-3-10,72.1,51.2,31.3,40.2,31.2,26.4,92,46,12,29.88,29.75,3,0,5,0.00
2013-3-11,72.9,56.4,39.7,55.8,46.1,29.1,85,62,33,29.80,29.48,6,1,10,0.00
2013-3-12,74.7,62.9,51.1,64.7,55.8,37.1,96,74,46,29.50,29.01,6,1,10,0.33
2013-3-13,60.1,47.9,34.7,38.4,30.8,24.3,85,45,21,29.69,29.50,5,1,8,0.01
2013-3-14,56.7,42.0,29.5,27.8,23.0,19.2,57,37,19,29.80,29.65,4,1,11,0.00
2013-3-15,64.8,46.8,27.1,39.2,31.2,22.4,80,49,22,29.74,29.45,3,0,8,0.00
2013-3-16,80.8,63.2,48.6,54.2,47.3,38.1,72,49,28,29.45,28.83,5,1,11,0.00
2013-3-17,64.2,53.7,42.8,54.0,47.4,39.6,92,74,54,29.72,29.39,4,0,5,0.00
2013-3-18,44.8,41.7,38.7,43.0,40.7,38.3,99,95,85,29.75,29.41,2,0,4,0.39
2013-3-19,69.6,53.1,41.4,51.2,38.2,21.4,99,61,13,29.57,29.02,4,1,9,0.37
2013-3-20,58.5,48.1,39.0,27.6,22.5,15.7,49,26,18,29.67,29.33,3,0,5,0.00
2013-3-21,49.8,40.7,31.5,32.7,23.1,13.3,76,41,20,29.53,28.90,3,0,8,0.00
2013-3-22,54.9,39.0,23.2,29.3,19.6,13.4,62,36,18,29.64,29.51,3,0,6,0.00
2013-3-23,58.1,45.6,38.5,35.4,31.0,27.3,71,47,27,29.60,29.08,2,0,2,0.00
2013-3-24,42.6,39.0,36.0,39.7,36.8,30.0,99,89,69,29.49,29.12,4,0,8,0.61
2013-3-25,50.2,41.2,36.3,40.6,33.5,28.0,99,71,35,29.38,29.10,4,1,11,0.01
2013-3-26,52.5,43.0,32.5,34.6,30.8,26.6,72,53,36,29.66,29.01,3,0,6,0.01
2013-3-27,56.1,43.5,32.4,32.0,27.8,24.5,74,46,21,29.78,29.66,5,1,7,0.00
2013-3-28,59.5,43.6,28.2,33.4,28.0,23.4,79,48,21,29.85,29.70,4,0,9,0.00
2013-3-29,62.8,46.5,28.8,36.6,29.9,25.1,84,48,19,29.89,29.73,4,0,7,0.00
2013-3-30,70.0,54.9,41.0,47.0,40.4,34.3,79,52,22,29.80,29.63,4,0,5,0.00
2013-3-31,70.2,57.8,48.6,60.8,53.0,44.9,98,80,60,29.66,29.36,4,0,8,0.00
2013-4-1,75.7,62.5,54.5,58.9,49.8,42.3,99,63,23,29.52,29.10,4,0,6,0.00
2013-4-2,63.7,51.2,36.7,42.5,33.6,29.1,78,44,18,29.71,29.51,3,0,5,0.00
2013-4-3,63.9,51.4,42.8,51.2,29.5,24.0,67,34,16,29.85,29.67,2,0,6,0.00
2013-4-4,49.3,43.4,39.6,41.3,36.1,28.1,99,71,41,29.90,29.46,3,0,5,0.00
2013-4-5,67.5,49.5,39.7,52.2,45.1,39.6,99,83,47,29.57,29.42,2,0,3,0.00
2013-4-6,70.2,54.8,39.7,43.9,37.6,29.7,99,51,19,29.82,29.56,2,0,5,0.00
2013-4-7,75.4,57.3,37.0,50.0,43.2,33.4,90,54,28,29.84,29.66,4,0,8,0.00
2013-4-8,82.0,67.4,52.5,61.8,55.6,49.8,96,62,35,29.73,29.60,4,1,8,0.00
2013-4-9,88.0,72.9,57.2,63.8,60.0,55.8,96,61,32,29.74,29.60,4,0,7,0.00
2013-4-10,90.5,75.8,62.2,66.5,62.1,58.7,88,59,31,29.66,29.49,4,1,8,0.00
2013-4-11,83.8,72.9,62.2,68.8,63.4,59.2,91,68,43,29.55,29.30,5,1,10,0.00
2013-4-12,84.0,73.1,65.1,72.3,65.6,53.1,96,74,44,29.36,28.88,5,1,11,0.00
2013-4-13,78.4,65.1,51.4,53.5,46.3,42.1,69,44,21,29.55,28.94,4,0,9,0.00
2013-4-14,85.3,64.8,45.7,56.1,48.3,43.2,96,55,18,29.65,29.55,5,0,9,0.00
2013-4-15,72.3,66.2,60.1,60.7,58.7,55.1,91,72,58,29.75,29.56,2,0,4,0.00
2013-4-16,79.7,67.2,57.4,65.6,60.6,56.5,98,77,48,29.85,29.74,2,0,4,0.00
2013-4-17,83.7,70.8,57.7,68.4,63.6,57.3,99,75,47,29.79,29.65,3,0,5,0.00
2013-4-18,81.7,71.3,60.3,65.9,62.3,58.2,95,69,47,29.75,29.55,4,1,9,0.00
2013-4-19,85.3,72.5,65.7,71.0,66.9,62.8,97,80,52,29.60,29.05,9,1,15,0.00
2013-4-20,65.8,55.2,47.1,65.2,42.0,-99.9,97,61,30,29.82,29.37,4,0,11,0.00
2013-4-21,65.3,53.0,41.5,47.3,43.3,40.5,99,65,40,30.03,29.58,4,0,7,0.00
2013-4-22,64.6,51.6,37.9,47.2,41.9,33.9,89,63,39,30.03,29.81,2,0,5,0.00
2013-4-23,68.4,56.0,47.7,54.5,50.0,46.4,96,77,50,29.83,29.67,2,0,4,0.00
2013-4-24,79.2,63.6,47.7,61.2,55.5,47.5,99,73,42,29.71,29.52,4,1,8,0.00
2013-4-25,72.9,62.2,51.8,58.4,50.4,43.7,90,60,29,29.82,29.57,2,0,6,0.00
2013-4-26,75.0,60.8,47.3,54.5,46.7,37.5,99,60,18,29.97,29.82,2,0,4,0.00
2013-4-27,75.4,63.7,52.5,56.6,50.2,45.9,81,56,30,29.93,29.81,4,0,7,0.00
2013-4-28,63.1,58.9,56.3,57.3,53.1,47.1,99,77,59,29.82,29.65,2,0,3,0.00
2013-4-29,72.9,63.6,55.8,66.6,61.5,55.5,99,92,68,29.66,29.51,2,0,4,0.00
2013-4-30,69.1,62.3,55.6,62.9,60.0,54.7,99,91,74,29.73,29.54,2,0,3,0.00
2013-5-1,62.4,59.3,55.2,59.8,57.2,-99.9,99,92,85,29.87,29.71,2,0,8,0.00
2013-5-2,66.0,60.2,54.5,60.8,57.3,53.8,97,88,78,29.87,29.81,2,0,5,0.00
2013-5-3,70.7,59.6,49.8,58.8,52.7,45.7,99,75,46,29.82,29.71,2,0,4,0.00
2013-5-4,68.4,57.7,50.5,55.8,51.2,46.0,88,74,55,29.76,29.57,4,0,8,0.00
2013-5-5,61.3,56.8,51.1,57.6,53.2,48.0,89,84,76,29.65,29.48,2,0,6,0.00
2013-5-6,68.0,60.2,57.6,66.4,56.9,-99.9,99,93,88,29.55,28.65,3,0,4,0.00
2013-5-7,71.6,57.4,51.3,63.3,48.3,-99.9,99,78,42,29.50,29.36,3,0,5,0.00
2013-5-8,73.0,62.2,53.4,61.5,57.7,52.3,99,83,57,29.57,29.48,3,0,6,0.22
2013-5-9,80.4,67.0,55.2,66.9,59.7,-99.9,99,77,44,29.62,29.49,2,0,4,0.22
2013-5-10,86.9,72.6,56.7,67.2,62.4,56.0,98,68,40,29.62,29.45,4,0,8,0.01
2013-5-11,84.2,74.6,68.7,68.4,65.2,61.1,89,68,47,29.51,29.30,4,0,8,0.00
2013-5-12,74.5,67.3,56.7,65.3,55.0,40.9,92,60,31,29.58,28.63,2,0,5,0.00
2013-5-13,67.1,57.5,45.9,46.4,42.5,39.1,83,51,29,29.73,29.53,3,0,4,0.00
2013-5-14,71.6,58.0,41.4,49.5,44.3,39.6,93,56,29,29.82,29.58,3,0,6,0.00
2013-5-15,88.2,70.9,55.9,66.8,57.9,46.5,78,58,39,29.63,29.41,3,0,7,0.00
2013-5-16,85.8,74.5,62.2,68.3,64.2,60.2,93,67,41,29.53,29.40,3,0,7,0.00
2013-5-17,88.3,75.7,63.0,70.0,65.0,61.1,96,67,37,29.63,29.53,4,0,4,0.00
2013-5-18,79.9,71.0,64.0,72.3,67.2,62.2,98,85,61,29.70,29.57,4,0,6,0.61
2013-5-19,79.5,69.5,65.5,73.0,64.9,-99.9,99,88,63,29.70,29.56,6,0,8,0.64
2013-5-20,76.8,70.3,67.5,73.2,68.8,-99.9,99,95,84,29.66,29.57,3,0,7,0.77
2013-5-21,85.5,74.2,69.3,75.6,70.6,68.3,97,87,65,29.61,29.50,3,0,6,0.01
2013-5-22,84.6,74.9,69.1,72.3,69.5,0.0,95,80,55,29.59,29.45,21,0,42,0.00
2013-5-23,82.8,74.9,70.3,72.0,70.0,68.4,93,82,62,29.51,28.68,4,0,5,0.00
2013-5-24,74.1,66.0,53.4,68.9,57.0,44.8,97,69,38,29.74,29.31,4,0,8,0.00
2013-5-25,73.0,58.6,43.3,55.6,46.6,42.0,95,62,28,29.83,29.60,2,0,5,0.00
2013-5-26,73.2,61.3,48.9,56.8,50.6,44.9,85,63,36,29.84,29.69,2,0,4,0.00
2013-5-27,80.4,67.1,51.4,61.3,55.5,50.4,97,64,32,29.84,29.71,4,0,8,0.00
2013-5-28,84.0,73.9,62.2,69.9,65.1,59.3,93,70,53,29.81,29.65,5,0,8,0.00
2013-5-29,84.9,75.4,63.0,69.2,65.9,61.1,96,69,48,29.80,29.66,4,0,10,0.00
2013-5-30,86.9,75.7,63.3,71.2,66.6,61.9,97,70,42,29.83,29.68,3,0,5,0.00
2013-5-31,86.9,78.0,66.6,73.2,69.0,65.2,96,71,46,29.78,29.60,5,0,7,0.00
2013-6-1,87.6,78.6,68.4,72.8,69.0,66.7,94,69,45,29.69,29.51,4,0,6,0.01
2013-6-2,86.9,78.1,69.4,71.6,69.1,66.0,92,70,45,29.61,29.08,4,1,7,0.01
2013-6-3,81.7,73.9,67.3,75.9,71.4,66.0,98,90,70,29.51,29.37,2,0,6,0.33
2013-6-4,79.9,71.2,64.9,69.7,66.5,64.7,99,83,57,29.64,29.48,2,0,4,0.01
2013-6-5,81.3,73.9,65.7,65.8,62.9,59.3,92,64,42,29.68,29.56,3,0,6,0.00
2013-6-6,77.5,68.8,66.4,73.8,60.7,-99.9,97,82,59,29.58,29.35,2,0,8,0.17
2013-6-7,73.8,70.8,69.4,73.5,70.3,69.2,99,98,97,29.40,28.85,2,0,4,3.25
2013-6-8,81.9,73.0,68.0,74.1,69.6,-99.9,99,89,68,29.65,29.34,2,0,4,0.09
2013-6-9,87.4,76.1,68.0,76.4,69.8,-99.9,99,81,55,29.71,29.60,2,0,6,0.01
2013-6-10,83.5,75.6,72.0,78.0,73.4,70.4,96,91,73,29.65,29.45,4,1,8,0.19
2013-6-11,85.1,76.9,70.9,73.1,69.9,67.8,94,76,51,29.50,29.40,3,0,6,0.02
2013-6-12,89.2,77.8,65.5,77.3,71.1,-99.9,98,78,55,29.53,29.41,2,0,4,0.00
2013-6-13,95.0,79.4,68.4,80.0,72.0,-99.9,96,78,38,29.41,28.80,4,0,9,0.09
2013-6-14,80.1,70.9,60.3,68.0,63.0,59.6,99,74,47,29.56,29.28,2,0,5,0.02
2013-6-15,84.0,64.7,59.4,67.5,48.2,-99.9,98,67,45,29.68,29.56,2,0,5,0.00
2013-6-16,86.5,75.2,63.1,73.0,64.7,-99.9,87,66,53,29.69,29.55,3,0,6,0.00
2013-6-17,86.0,77.5,71.2,75.8,70.7,66.1,85,75,59,29.59,29.48,3,0,5,0.00
2013-6-18,84.7,75.4,70.3,75.8,71.5,68.6,97,85,62,29.52,29.30,4,0,7,0.40
2013-6-19,80.8,73.1,66.0,72.1,67.9,-99.9,99,82,61,29.66,29.38,2,0,4,0.40
2013-6-20,82.6,70.3,65.1,67.6,58.2,-99.9,97,69,48,29.78,29.67,2,0,4,0.00
2013-6-21,83.3,71.4,58.3,67.4,60.7,-99.9,94,66,39,29.81,29.69,2,0,3,0.00
2013-6-22,81.7,74.3,70.0,73.9,70.6,66.1,93,86,71,29.75,29.60,2,0,6,0.04
2013-6-23,85.5,71.7,69.8,76.1,62.2,-99.9,98,81,62,29.76,29.66,3,0,6,0.02
2013-6-24,86.5,76.8,71.6,77.2,71.2,-99.9,98,84,63,29.76,29.61,4,0,6,0.01
2013-6-25,89.1,77.2,70.3,78.0,71.9,-99.9,95,82,59,29.68,29.51,3,0,6,0.00
2013-6-26,89.1,77.0,69.8,77.5,72.4,67.3,96,84,56,29.59,28.67,4,0,8,0.17
2013-6-27,89.2,74.1,68.0,79.3,65.5,-99.9,99,81,63,29.48,29.26,4,0,7,0.17
2013-6-28,91.0,76.8,71.6,77.8,67.7,-99.9,96,78,54,29.30,28.76,4,0,10,0.65
2013-6-29,85.3,64.5,69.3,76.8,44.9,-99.9,99,72,67,29.28,29.16,3,0,4,1.00
2013-6-30,86.9,76.8,71.1,77.5,73.5,69.8,98,88,65,29.42,29.00,3,0,6,0.17
2013-7-1,81.5,75.3,70.5,76.6,73.3,70.1,98,92,79,29.55,29.39,4,0,7,0.35
2013-7-2,77.4,74.0,72.1,75.1,72.5,-99.9,98,95,90,29.73,29.54,4,0,7,0.13
2013-7-3,85.1,77.9,73.9,78.9,75.2,71.9,98,90,72,29.79,29.70,4,0,8,0.05
2013-7-4,88.2,80.6,73.9,78.2,74.2,71.3,97,78,51,29.83,29.68,4,0,7,0.02
2013-7-5,89.2,81.0,73.2,77.8,74.6,71.8,96,78,56,29.83,29.71,4,0,6,0.00
2013-7-6,88.2,79.6,74.3,77.5,74.5,71.5,95,82,59,29.81,29.67,4,0,8,0.02
2013-7-7,88.9,79.5,70.7,77.4,74.0,69.2,97,81,60,29.74,29.57,4,0,7,0.01
2013-7-8,87.8,79.5,73.2,77.9,74.7,70.8,93,83,62,29.72,29.63,4,0,7,0.00
2013-7-9,86.9,77.3,72.9,79.8,74.2,70.8,97,88,66,29.71,29.61,3,0,6,0.00
2013-7-10,87.8,78.3,73.6,78.9,74.4,-99.9,96,87,66,29.66,29.50,3,0,6,0.02
2013-7-11,82.9,75.1,72.7,76.9,72.4,-99.9,97,92,76,29.53,29.05,3,0,4,0.33
2013-7-12,77.5,66.9,71.8,74.7,56.8,-99.9,99,86,85,29.57,29.41,916,0,916,0.13
2013-7-13,77.5,43.1,71.6,76.6,-0.5,-99.9,97,54,92,29.72,29.55,916,0,916,0.13
2013-7-14,88.2,65.6,70.5,79.1,45.7,-99.9,98,71,57,29.84,29.69,4,0,7,0.02
2013-7-15,89.4,79.0,70.3,79.6,74.0,69.9,99,83,54,29.87,29.79,2,0,4,0.01
2013-7-16,91.8,77.2,70.2,79.8,66.9,-99.9,99,76,52,29.83,29.71,4,0,8,0.02
2013-7-17,92.3,59.7,75.4,81.9,23.0,-99.9,96,50,50,29.77,29.63,2,0,6,0.02
2013-7-18,93.0,73.4,75.4,81.4,55.9,-99.9,97,70,52,29.69,29.58,2,0,4,0.00
2013-7-19,90.3,80.2,75.6,80.0,70.9,-99.9,96,76,59,29.65,29.53,2,0,6,0.00
2013-7-20,89.2,80.6,75.2,78.5,75.6,73.2,92,82,63,29.59,29.47,3,0,6,0.00
2013-7-21,87.8,79.2,73.9,79.5,75.1,72.0,96,85,66,29.55,29.44,4,0,5,0.00
2013-7-22,87.4,78.7,72.7,78.5,74.9,72.0,99,87,64,29.50,29.37,3,0,5,0.01
2013-7-23,88.9,81.2,75.2,77.5,75.1,73.2,93,79,59,29.40,28.90,3,0,7,0.01
2013-7-24,92.5,81.2,71.6,77.6,74.0,70.7,97,77,48,29.39,29.27,2,0,3,0.01
2013-7-25,80.1,74.3,68.9,73.0,70.6,67.5,97,86,70,29.58,29.36,1,0,2,0.04
2013-7-26,84.7,74.7,63.9,71.4,67.3,63.2,99,76,49,29.66,29.56,4,0,6,0.00
2013-7-27,87.3,75.5,68.9,74.7,70.2,67.5,98,82,49,29.60,29.44,5,0,9,0.14
2013-7-28,86.7,77.3,69.6,76.1,72.7,69.3,99,84,56,29.56,29.43,3,0,5,0.14
2013-7-29,85.3,77.3,70.5,74.4,71.1,68.4,98,79,52,29.69,29.54,2,0,2,0.00
2013-7-30,87.4,76.4,63.5,73.1,68.2,62.8,99,74,45,29.77,29.64,4,0,5,0.00
2013-7-31,84.7,78.2,71.4,77.1,73.2,69.2,96,82,66,29.69,29.51,3,0,5,0.04
2013-8-1,83.8,75.1,70.9,76.8,73.0,69.3,98,92,73,29.57,29.41,3,0,4,0.11
2013-8-2,87.8,77.3,68.5,76.2,71.1,-99.9,99,81,10,29.57,29.45,2,0,4,0.05
2013-8-3,89.6,79.5,73.2,79.3,75.3,72.5,99,86,56,29.57,29.44,4,0,8,0.35
2013-8-4,84.2,75.4,-8.3,77.4,70.2,-12.8,99,82,51,29.58,29.08,2,0,6,0.37
2013-8-5,84.0,75.2,65.5,69.8,66.7,64.0,99,72,46,29.64,29.50,4,0,6,0.00
2013-8-6,83.1,75.2,68.2,73.1,69.5,65.9,99,80,58,29.61,29.50,4,0,8,0.18
2013-8-7,86.2,78.0,70.2,74.6,71.4,68.7,95,77,54,29.65,29.52,4,0,7,0.01
2013-8-8,89.4,80.3,72.3,77.0,74.1,70.9,96,79,53,29.62,29.50,3,0,5,0.00
2013-8-9,90.9,82.1,75.0,79.4,76.2,73.7,97,80,58,29.61,29.48,4,0,7,0.00
2013-8-10,94.8,81.0,73.9,80.5,76.4,73.4,99,85,52,29.65,29.55,3,0,4,0.17
2013-8-11,91.2,80.7,72.3,79.3,75.8,71.6,99,83,59,29.66,29.53,3,0,5,0.01
2013-8-12,92.5,82.1,74.5,80.2,75.3,-99.9,99,79,49,29.59,29.43,2,0,4,0.01
2013-8-13,88.9,78.8,71.8,80.4,74.8,-99.9,99,87,61,29.51,29.29,3,0,5,0.07
2013-8-14,77.2,72.9,64.0,74.4,68.8,60.5,99,84,71,29.63,29.37,2,0,3,0.01
2013-8-15,77.9,67.0,60.1,63.7,60.9,59.2,96,78,48,29.71,29.57,3,0,5,0.00
2013-8-16,71.1,65.9,59.9,64.1,62.2,59.7,99,85,69,29.73,29.62,2,0,3,0.00
2013-8-17,72.0,68.1,64.4,71.3,67.1,62.8,99,96,89,29.73,29.65,2,0,3,0.17
2013-8-18,82.4,56.7,69.8,74.4,29.1,-99.9,98,64,69,29.75,29.65,2,0,4,0.08
2013-8-19,74.1,70.6,67.8,73.2,69.8,67.0,99,96,89,29.75,29.60,2,0,3,0.25
2013-8-20,83.3,70.3,69.3,76.4,60.3,-99.9,99,83,72,29.73,29.61,4,0,4,0.01
2013-8-21,88.2,65.4,70.9,77.5,49.9,-99.9,99,79,63,29.77,29.63,4,0,5,0.04
2013-8-22,89.1,73.4,71.1,79.1,59.8,-99.9,98,73,50,29.70,29.50,916,0,916,0.01
2013-8-23,88.5,77.7,69.3,76.8,72.9,68.4,99,83,55,29.61,29.47,2,0,4,0.00
2013-8-24,84.0,74.0,65.8,68.5,64.8,60.8,95,70,41,29.84,29.61,2,0,4,0.00
2013-8-25,81.0,70.0,60.3,67.8,61.6,-99.9,99,73,42,29.94,29.79,2,0,4,0.00
2013-8-26,83.8,69.0,55.4,67.6,59.9,-99.9,99,73,38,29.87,29.62,4,0,6,0.00
2013-8-27,89.6,38.9,61.5,74.4,-6.6,-99.9,94,49,49,29.67,29.47,916,0,916,0.00
2013-8-28,83.7,18.0,71.2,77.8,-59.4,-99.9,99,21,75,29.54,29.38,916,0,916,0.00
2013-8-29,87.3,16.2,77.0,76.5,-65.8,-99.9,88,14,58,29.56,29.34,916,0,916,0.00
2013-8-30,88.0,21.3,66.4,70.7,-54.6,-99.9,99,18,45,29.61,29.44,916,0,916,0.00
2013-8-31,88.7,33.6,70.5,75.7,-29.4,-99.9,99,28,51,29.53,29.38,916,0,916,0.00
2013-9-1,91.8,39.1,71.8,79.2,-16.5,-99.9,97,37,55,29.45,29.31,916,0,916,1.26
2013-9-2,89.2,72.5,70.5,78.6,61.1,-99.9,98,79,61,29.44,29.31,3,0,4,1.28
2013-9-3,89.6,69.1,73.2,79.1,51.1,-99.9,99,72,60,29.49,28.98,916,0,916,0.00
2013-9-4,84.9,9.3,69.6,74.4,-79.1,-99.9,95,10,61,29.63,29.45,916,0,916,0.00
2013-9-5,88.9,61.7,66.9,75.2,32.3,-99.9,99,54,36,29.65,29.55,916,0,916,0.00
2013-9-6,85.1,72.6,63.9,69.6,64.6,60.5,97,73,45,29.72,29.62,2,0,4,0.00
2013-9-7,84.7,71.9,59.7,69.7,64.9,59.5,99,77,45,29.68,29.52,3,0,5,0.00
2013-9-8,88.7,69.7,63.5,71.6,52.7,-99.9,99,65,11,29.54,29.41,916,0,916,0.00
2013-9-9,88.9,26.9,65.7,72.0,-38.2,-99.9,99,31,46,29.70,29.53,916,0,916,0.00
2013-9-10,91.9,78.4,68.5,76.5,68.3,-99.9,99,72,40,29.78,29.64,3,0,6,0.00
2013-9-11,91.4,71.1,68.0,74.1,54.0,-99.9,99,67,46,29.76,29.61,4,0,6,0.00
2013-9-12,92.3,77.9,70.0,77.8,71.9,68.6,97,80,49,29.63,29.35,3,0,5,0.05
2013-9-13,87.1,75.8,68.0,72.5,66.9,57.1,99,72,42,29.44,28.98,2,0,4,0.02
2013-9-14,78.1,68.6,60.3,60.0,56.4,52.7,84,59,39,29.69,29.43,2,0,4,0.00
2013-9-15,82.4,66.5,54.9,65.3,57.6,-99.9,97,73,41,29.79,29.63,3,0,5,0.00
2013-9-16,86.4,75.1,68.0,77.1,67.7,61.0,99,76,43,29.73,29.58,2,0,5,0.20
2013-9-17,79.2,69.2,60.4,61.7,58.1,54.2,88,63,38,29.86,29.69,3,0,6,0.01
2013-9-18,61.9,56.4,55.9,55.0,52.8,52.6,85,84,71,29.85,29.67,2,0,4,0.00
2013-9-19,55.9,54.1,55.9,52.6,47.7,-99.9,85,82,85,29.75,29.59,2,0,4,0.00
2013-9-20,55.9,44.5,55.9,52.6,21.5,-99.9,85,68,85,29.64,29.47,2,0,4,0.21
2013-9-21,55.9,55.9,55.9,52.6,52.6,52.6,85,85,85,29.52,28.57,4,0,6,0.34
2013-9-22,55.9,52.1,55.9,52.6,42.4,-99.9,85,79,85,29.44,29.25,2,0,4,0.74
2013-9-23,55.9,31.5,55.9,52.6,-14.1,-99.9,85,48,85,29.62,29.41,2,0,5,0.01
2013-9-24,55.9,10.4,55.9,52.6,-71.6,-99.9,85,16,85,29.66,29.49,916,0,916,0.00
2013-9-25,55.9,9.9,55.9,52.6,-73.0,-99.9,85,15,85,29.51,29.42,916,0,916,0.00
2013-9-26,55.9,32.5,55.9,52.6,-11.2,-99.9,85,49,85,29.58,29.39,2,0,4,0.00
2013-9-27,-200.0,0.0,200.0,-99.9,-99.9,-99.9,0,0,100,29.74,29.55,916,0,916,0.00
2013-9-28,55.9,15.2,55.9,52.6,-58.4,-99.9,85,23,85,29.81,29.67,916,0,916,0.00
2013-9-29,-200.0,0.0,200.0,-99.9,-99.9,-99.9,0,0,100,29.72,29.55,916,0,916,0.00
2013-9-30,-200.0,0.0,200.0,-99.9,-99.9,-99.9,0,0,100,29.66,29.55,916,0,916,0.00
2013-10-1,-200.0,0.0,200.0,-99.9,-99.9,-99.9,0,0,100,29.68,29.56,916,0,916,0.00
2013-10-2,-200.0,0.0,200.0,-99.9,-99.9,-99.9,0,0,100,29.69,29.58,916,0,916,0.00
2013-10-3,-200.0,0.0,200.0,-99.9,-99.9,-99.9,0,0,100,29.68,29.60,916,0,916,0.00
2013-10-4,-200.0,0.0,200.0,-99.9,-99.9,-99.9,0,0,100,29.69,29.55,916,0,916,0.00
2013-10-5,-200.0,0.0,200.0,-99.9,-99.9,-99.9,0,0,100,29.67,29.53,916,0,916,0.00
2013-10-6,-200.0,0.0,200.0,-99.9,-99.9,-99.9,0,0,100,29.62,29.48,916,0,916,0.00
2013-10-7,-200.0,0.0,200.0,-99.9,-99.9,-99.9,0,0,100,29.53,29.36,916,0,916,0.00
2013-10-8,-200.0,0.0,200.0,-99.9,-99.9,-99.9,0,0,100,29.74,29.52,916,0,916,0.00
2013-10-9,-200.0,0.0,200.0,-99.9,-99.9,-99.9,0,0,100,29.73,29.61,916,0,916,0.00
2013-10-10,-200.0,0.0,200.0,-99.9,-99.9,-99.9,0,0,100,29.63,29.45,916,0,916,0.00
2013-10-11,-200.0,0.0,200.0,-99.9,-99.9,-99.9,0,0,100,29.52,29.42,916,0,916,0.00
2013-10-12,-200.0,0.0,200.0,-99.9,-99.9,-99.9,0,0,100,29.63,29.47,916,0,916,0.00
2013-10-13,-200.0,0.0,200.0,-99.9,-99.9,-99.9,0,0,100,29.75,29.62,916,0,916,0.00
2013-10-14,-200.0,0.0,200.0,-99.9,-99.9,-99.9,0,0,100,29.79,29.70,916,0,916,0.00
2013-10-15,-200.0,0.0,200.0,-99.9,-99.9,-99.9,0,0,100,29.75,29.57,916,0,916,0.00
2013-10-16,-200.0,0.0,200.0,-99.9,-99.9,-99.9,0,0,100,29.62,29.48,916,0,916,0.00
2013-10-17,-200.0,0.0,200.0,-99.9,-99.9,-99.9,0,0,100,29.53,29.40,916,0,916,0.00
2013-10-18,-200.0,0.0,200.0,-99.9,-99.9,-99.9,0,0,100,29.60,29.39,916,0,916,0.00
2013-10-19,-200.0,0.0,200.0,-99.9,-99.9,-99.9,0,0,100,29.53,29.38,916,0,916,0.00
2013-10-20,-200.0,0.0,200.0,-99.9,-99.9,-99.9,0,0,100,29.68,29.44,916,0,916,0.00
2013-10-21,-200.0,0.0,200.0,-99.9,-99.9,-99.9,0,0,100,29.72,29.56,916,0,916,0.00
2013-10-22,-200.0,0.0,200.0,-99.9,-99.9,-99.9,0,0,100,29.57,29.00,916,0,916,0.00
2013-10-23,-200.0,0.0,200.0,-99.9,-99.9,-99.9,0,0,100,29.56,29.24,916,0,916,0.00
2013-10-24,-200.0,0.0,200.0,-99.9,-99.9,-99.9,0,0,100,29.73,29.56,916,0,916,0.00
2013-10-25,-200.0,0.0,200.0,-99.9,-99.9,-99.9,0,0,100,29.92,29.73,916,0,916,0.00
2013-10-26,-200.0,0.0,200.0,-99.9,-99.9,-99.9,0,0,100,29.92,29.63,916,0,916,0.00
2013-10-27,-200.0,0.0,200.0,-99.9,-99.9,-99.9,0,0,100,29.68,29.58,916,0,916,0.00
2013-10-28,-200.0,0.0,200.0,-99.9,-99.9,-99.9,0,0,100,29.81,29.67,916,0,916,0.00
2013-10-29,-200.0,0.0,200.0,-99.9,-99.9,-99.9,0,0,100,29.89,29.80,916,0,916,0.00
2013-10-30,-200.0,0.0,200.0,-99.9,-99.9,-99.9,0,0,100,29.85,29.71,916,0,916,0.00
2013-10-31,-200.0,0.0,200.0,-99.9,-99.9,-99.9,0,0,100,29.75,29.49,916,0,916,0.00
2013-11-1,-200.0,0.0,200.0,-99.9,-99.9,-99.9,0,0,100,29.48,29.24,916,0,916,0.00
2013-11-2,-200.0,0.0,200.0,-99.9,-99.9,-99.9,0,0,100,29.50,28.96,916,0,916,0.00
2013-11-3,-200.0,0.0,200.0,-99.9,-99.9,-99.9,0,0,100,29.92,29.49,916,0,916,0.00
2013-11-4,-200.0,0.0,200.0,-99.9,-99.9,-99.9,0,0,100,30.10,29.67,916,0,916,0.00
2013-11-5,-200.0,0.0,200.0,-99.9,-99.9,-99.9,0,0,100,30.09,29.93,916,0,916,0.00
2013-11-6,-200.0,0.0,200.0,-99.9,-99.9,-99.9,0,0,100,29.98,29.62,916,0,916,0.00
2013-11-7,-200.0,0.0,200.0,-99.9,-99.9,-99.9,0,0,100,29.66,29.47,916,0,916,0.00
2013-11-8,-200.0,0.0,200.0,-99.9,-99.9,-99.9,0,0,100,29.88,29.61,916,0,916,0.00
2013-11-9,60.6,25.7,42.8,40.7,-32.2,-99.9,75,25,27,30.29,29.82,916,0,916,0.00
2013-11-10,74.7,53.6,37.6,48.0,40.1,35.4,93,58,19,30.29,30.29,2,0,4,0.00
2013-11-11,63.3,47.5,33.8,40.6,34.8,29.1,84,56,23,39.19,39.19,2,0,4,0.00
2013-11-12,64.4,42.7,34.0,45.6,36.2,25.4,92,74,37,39.19,39.19,3,0,10,0.02
2013-11-13,48.9,35.3,26.6,27.7,22.4,18.6,73,51,24,39.22,39.22,2,0,4,0.02
2013-11-14,59.9,39.3,24.6,33.3,26.6,21.3,84,56,21,39.32,39.32,2,0,6,0.00
2013-11-15,60.4,45.3,29.7,50.4,37.6,-99.9,93,71,42,39.17,39.17,1,0,2,0.00
2013-11-16,72.5,57.7,49.5,61.4,54.0,48.0,97,85,59,39.15,39.15,2,0,3,0.00
2013-11-17,72.3,62.4,52.9,66.4,59.4,52.5,99,89,63,39.18,39.18,3,0,5,0.04
2013-11-18,78.1,67.5,55.2,68.0,57.5,35.6,97,67,35,46.08,40.00,4,0,8,0.06
2013-11-19,61.2,49.9,42.8,36.1,33.7,31.8,59,44,25,44.62,39.15,3,0,6,0.01
2013-11-20,57.2,45.9,38.1,40.0,35.5,30.3,80,59,40,39.19,39.19,2,0,3,0.07
2013-11-21,63.5,51.2,41.7,51.4,44.7,38.2,85,73,54,39.19,39.19,2,0,3,0.01
2013-11-22,72.5,59.1,47.3,62.7,53.2,-99.9,93,79,63,39.19,39.19,2,0,4,0.02
2013-11-23,62.1,55.5,43.2,60.6,47.1,-99.9,99,70,39,41.84,40.00,1,0,3,0.05
2013-11-24,43.0,34.5,25.0,28.5,14.8,7.7,52,33,18,39.16,39.16,4,0,7,0.00
2013-11-25,46.6,32.4,19.2,21.4,16.0,12.5,73,42,19,69.46,40.00,3,0,8,0.00
2013-11-26,66.6,47.4,37.0,65.9,40.6,17.7,99,73,32,69.52,40.00,4,0,10,0.70
2013-11-27,54.7,40.6,29.8,53.6,38.6,21.4,99,90,57,69.52,40.00,2,0,3,0.64
2013-11-28,47.3,33.1,23.0,28.1,22.6,17.2,79,57,28,69.45,40.00,2,0,4,0.01
2013-11-29,55.2,37.1,24.8,36.2,27.4,21.9,92,63,28,69.47,40.00,2,0,3,0.01
2013-11-30,52.7,37.2,26.6,38.6,30.0,22.4,87,69,47,39.18,39.18,2,0,3,0.00
2013-12-1,61.9,43.2,28.2,42.6,35.9,25.8,95,72,34,39.33,39.33,2,0,3,0.00
2013-12-2,63.7,47.8,39.6,50.1,42.6,38.0,96,79,48,39.19,39.19,2,0,4,0.00
2013-12-3,58.1,47.1,33.6,49.0,42.7,32.5,99,81,61,39.19,39.16,2,0,4,0.00
2013-12-4,65.3,57.7,52.7,59.5,53.8,48.2,96,83,72,39.16,39.16,2,0,3,0.00
2013-12-5,67.8,61.8,53.4,65.3,60.5,52.5,99,94,86,39.16,39.16,2,0,4,0.01
2013-12-6,80.6,71.6,65.5,67.6,65.0,62.9,92,76,55,56.33,39.16,5,1,11,0.01
2013-12-7,69.8,50.6,43.7,65.8,46.8,36.2,98,83,67,56.19,40.00,2,0,5,0.21
2013-12-8,43.5,36.7,34.3,36.0,33.0,31.3,94,83,60,40.39,40.00,2,0,4,0.13
2013-12-9,46.2,40.0,34.7,45.6,39.4,33.6,99,97,94,69.47,40.00,4,0,4,0.18
2013-12-10,49.8,43.8,29.7,48.0,42.2,27.3,99,92,70,69.47,40.00,2,0,4,0.63
2013-12-11,52.3,35.9,24.8,36.4,28.1,22.5,93,69,31,39.18,39.18,2,0,5,0.01
2013-12-12,48.6,35.0,26.6,28.4,23.8,18.5,85,58,22,39.21,39.21,2,0,4,0.00
2013-12-13,54.7,36.5,23.2,32.9,25.2,19.1,81,58,20,39.21,39.16,4,0,6,0.00
2013-12-14,48.4,42.4,38.5,43.1,37.5,31.1,97,79,47,69.58,40.00,2,0,4,0.71
2013-12-15,58.3,43.8,32.5,47.7,38.1,-99.9,99,78,43,69.58,39.29,2,0,5,0.07
2013-12-16,58.5,40.8,28.4,39.6,33.3,26.0,88,70,36,39.29,39.18,2,0,5,0.01
2013-12-17,63.9,48.3,33.3,43.6,37.7,30.6,92,62,33,39.18,39.18,4,0,7,0.00
2013-12-18,53.4,41.7,30.2,39.1,26.4,22.1,73,46,20,39.18,39.18,2,0,4,0.00
2013-12-19,65.5,45.0,28.4,36.0,29.5,23.6,77,50,18,39.18,39.18,2,0,7,0.00
2013-12-20,69.3,54.1,42.4,57.1,46.4,33.6,85,69,51,39.15,39.15,3,0,5,0.00
2013-12-21,75.2,61.6,49.1,66.9,57.1,0.0,94,82,61,39.15,39.15,232,1,232,0.00
2013-12-22,79.5,68.5,64.8,69.5,59.2,-99.9,95,77,59,48.22,40.00,7,1,10,0.32
2013-12-23,68.0,60.8,45.5,66.6,59.7,-99.9,99,96,92,54.49,40.00,3,0,4,1.36
2013-12-24,50.2,42.2,29.7,44.3,32.5,17.3,93,61,40,47.78,40.00,3,0,6,0.08
2013-12-25,44.1,31.4,23.4,19.6,16.6,13.7,63,44,22,39.42,39.42,3,0,4,0.00
2013-12-26,54.3,37.0,26.8,39.4,30.3,19.4,87,71,38,39.17,39.17,2,0,3,0.05
2013-12-27,56.1,37.2,25.9,36.3,27.6,0.0,90,64,23,39.15,30.80,22,0,43,0.01
2013-12-28,61.7,41.0,25.3,40.3,28.7,-99.9,90,62,21,39.15,39.15,2,0,4,0.00
2013-12-29,62.1,46.5,42.8,61.6,39.2,-99.9,99,88,64,39.15,39.15,916,0,916,1.64
2013-12-30,54.7,44.8,35.1,50.5,41.5,34.7,99,86,60,39.15,39.15,1,0,2,0.01
2013-12-31,52.2,42.7,32.4,39.6,33.2,27.6,87,63,27,39.15,39.15,2,0,4,0.00
2014-1-1,54.5,40.1,30.6,35.4,30.5,27.1,86,64,26,39.15,39.15,3,0,6,0.00
2014-1-2,48.6,43.5,37.8,45.8,40.1,33.4,97,84,69,39.15,39.15,2,0,3,0.24